This is the latest recevied weather packets stored in our database for station/object IU2EVW-3. If no packets are shown the sender has not sent any weather packets the latest 10 day(s).
| Time | Temp. | Humidity | Pressure | Rain* | Wind** | Luminosity | Snow |
|---|---|---|---|---|---|---|---|
| 1777838431 | 18.33° C | 33% | 1017.6 hPa | - | - | - | - |
| 1777837230 | 18.89° C | 32% | 1017.4 hPa | - | - | - | - |
| 1777836029 | 18.89° C | 34% | 1017.1 hPa | - | - | - | - |
| 1777834827 | 19.44° C | 34% | 1016.9 hPa | - | - | - | - |
| 1777833626 | 19.44° C | 34% | 1016.8 hPa | - | - | - | - |
| 1777832425 | 20.56° C | 33% | 1016.7 hPa | - | - | - | - |
| 1777831224 | 21.11° C | 31% | 1016.7 hPa | - | - | - | - |
| 1777830023 | 21.11° C | 30% | 1016.5 hPa | - | - | - | - |
| 1777828822 | 21.67° C | 29% | 1016.4 hPa | - | - | - | - |
| 1777827620 | 22.22° C | 28% | 1016.4 hPa | - | - | - | - |
| 1777826419 | 22.78° C | 31% | 1016.4 hPa | - | - | - | - |
| 1777825218 | 23.33° C | 31% | 1016.5 hPa | - | - | - | - |
| 1777824017 | 22.78° C | 31% | 1016.7 hPa | - | - | - | - |
| 1777822816 | 24.44° C | 29% | 1016.8 hPa | - | - | - | - |
| 1777821615 | 24.44° C | 29% | 1016.9 hPa | - | - | - | - |
| 1777820413 | 25° C | 29% | 1017.1 hPa | - | - | - | - |
| 1777819212 | 23.89° C | 29% | 1017.4 hPa | - | - | - | - |
| 1777818011 | 25° C | 28% | 1017.5 hPa | - | - | - | - |
| 1777816810 | 24.44° C | 28% | 1017.9 hPa | - | - | - | - |
| 1777815609 | 25° C | 27% | 1018 hPa | - | - | - | - |
| 1777814407 | 25° C | 26% | 1018.3 hPa | - | - | - | - |
| 1777813206 | 23.33° C | 27% | 1018.7 hPa | - | - | - | - |
| 1777812005 | 22.78° C | 29% | 1018.9 hPa | - | - | - | - |
| 1777810804 | 22.22° C | 30% | 1019 hPa | - | - | - | - |
| 1777809603 | 22.78° C | 28% | 1018.9 hPa | - | - | - | - |
* Rain since midnight (hover to see other rain measurements)
** Current wind speed in m/s (hover to see current wind gust speed)